createdAt,value
2023-04-08T00:02:24.505Z,7.10
2023-04-08T00:04:51.592Z,7.10
2023-04-08T00:07:18.782Z,7.10
2023-04-08T00:09:46.101Z,7.00
2023-04-08T00:12:13.309Z,7.10
2023-04-08T00:14:41.742Z,7.10
2023-04-08T00:17:09.703Z,7.10
2023-04-08T00:19:36.729Z,7.10
2023-04-08T00:22:03.773Z,7.10
2023-04-08T00:24:30.992Z,7.10
2023-04-08T00:26:58.346Z,7.10
2023-04-08T00:29:25.402Z,7.10
2023-04-08T00:31:52.792Z,7.10
2023-04-08T00:34:19.981Z,7.10
2023-04-08T00:36:47.804Z,7.10
2023-04-08T00:39:15.642Z,7.20
2023-04-08T00:41:43.344Z,7.20
2023-04-08T00:44:10.551Z,7.20
2023-04-08T00:46:40.312Z,7.20
2023-04-08T00:49:07.800Z,7.20
2023-04-08T00:51:38.072Z,7.30
2023-04-08T00:54:06.480Z,7.20
2023-04-08T00:56:35.110Z,7.20
2023-04-08T00:59:02.911Z,7.10
2023-04-08T01:01:57.751Z,7.10
2023-04-08T01:04:47.000Z,7.10
2023-04-08T01:07:13.951Z,7.00
2023-04-08T01:09:46.696Z,7.00
2023-04-08T01:12:20.988Z,7.10
2023-04-08T01:14:48.896Z,7.20
2023-04-08T01:17:20.161Z,7.20
2023-04-08T01:19:48.978Z,7.20
2023-04-08T01:22:42.460Z,7.10
2023-04-08T01:25:17.535Z,7.10
2023-04-08T01:27:45.816Z,7.10
2023-04-08T01:30:15.737Z,7.10
2023-04-08T01:32:45.037Z,7.20
2023-04-08T01:35:12.878Z,7.20
2023-04-08T01:37:40.750Z,7.20
2023-04-08T01:40:09.900Z,7.30
2023-04-08T01:42:38.866Z,7.40
2023-04-08T01:45:07.428Z,7.40
2023-04-08T01:47:37.307Z,7.40
2023-04-08T01:50:06.387Z,7.40
2023-04-08T01:52:35.824Z,7.40
2023-04-08T01:55:02.978Z,7.40
2023-04-08T01:57:35.338Z,7.30
2023-04-08T02:00:11.367Z,7.20
2023-04-08T02:02:48.423Z,7.00
2023-04-08T02:05:16.222Z,6.90
2023-04-08T02:07:43.252Z,6.90
2023-04-08T02:10:10.797Z,6.90
2023-04-08T02:12:37.979Z,6.90
2023-04-08T02:15:11.308Z,6.90
2023-04-08T02:17:55.685Z,6.90
2023-04-08T02:20:40.086Z,6.80
2023-04-08T02:23:20.607Z,6.80
2023-04-08T02:25:48.769Z,6.80
2023-04-08T02:28:17.908Z,6.70
2023-04-08T02:30:50.125Z,6.80
2023-04-08T02:33:20.043Z,6.80
2023-04-08T02:35:49.639Z,6.80
2023-04-08T02:38:17.155Z,6.70
2023-04-08T02:40:44.143Z,6.70
2023-04-08T02:43:11.238Z,6.80
2023-04-08T02:45:44.887Z,6.60
2023-04-08T02:48:12.053Z,6.40
2023-04-08T02:50:40.082Z,6.40
2023-04-08T02:53:08.677Z,6.30
2023-04-08T02:55:36.035Z,6.10
2023-04-08T02:58:03.124Z,6.10
2023-04-08T03:00:30.527Z,5.90
2023-04-08T03:02:57.781Z,5.90
2023-04-08T03:05:26.285Z,5.80
2023-04-08T03:07:53.364Z,5.90
2023-04-08T03:10:20.342Z,5.90
2023-04-08T03:12:47.347Z,5.90
2023-04-08T03:15:14.508Z,5.90
2023-04-08T03:17:41.599Z,5.90
2023-04-08T03:20:09.087Z,5.80
2023-04-08T03:22:37.255Z,5.90
2023-04-08T03:25:04.527Z,5.90
2023-04-08T03:27:31.577Z,5.90
2023-04-08T03:29:58.873Z,6.00
2023-04-08T03:32:26.127Z,6.00
2023-04-08T03:34:53.655Z,6.10
2023-04-08T03:37:20.859Z,6.10
2023-04-08T03:39:47.924Z,6.10
2023-04-08T03:42:15.013Z,6.20
2023-04-08T03:44:42.051Z,6.30
2023-04-08T03:47:09.205Z,6.40
2023-04-08T03:49:36.495Z,6.30
2023-04-08T03:52:03.639Z,6.40
2023-04-08T03:54:30.913Z,6.50
2023-04-08T03:56:58.014Z,6.50
2023-04-08T03:59:25.164Z,6.40
2023-04-08T04:01:53.881Z,6.40
2023-04-08T04:04:21.493Z,6.50
2023-04-08T04:06:48.883Z,6.50
2023-04-08T04:09:16.992Z,6.40
2023-04-08T04:11:44.122Z,6.40
2023-04-08T04:14:11.235Z,6.40
2023-04-08T04:16:38.296Z,6.40
2023-04-08T04:19:05.782Z,6.40
2023-04-08T04:21:33.340Z,6.30
2023-04-08T04:24:00.324Z,6.20
2023-04-08T04:26:27.355Z,6.10
2023-04-08T04:29:24.557Z,6.10
2023-04-08T04:31:51.596Z,6.10
2023-04-08T04:34:18.598Z,6.10
2023-04-08T04:36:46.161Z,6.10
2023-04-08T04:39:13.130Z,6.20
2023-04-08T04:41:40.791Z,6.30
2023-04-08T04:44:07.802Z,6.40
2023-04-08T04:46:34.934Z,6.40
2023-04-08T04:49:02.177Z,6.40
2023-04-08T04:51:32.705Z,6.50
2023-04-08T04:53:59.720Z,6.50
2023-04-08T04:56:27.264Z,6.50
2023-04-08T04:58:54.255Z,6.50
2023-04-08T05:01:21.597Z,6.60
2023-04-08T05:03:48.603Z,6.60
2023-04-08T05:06:15.709Z,6.60
2023-04-08T05:08:42.702Z,6.50
2023-04-08T05:11:11.098Z,6.50
2023-04-08T05:13:38.166Z,6.50
2023-04-08T05:16:05.577Z,6.40
2023-04-08T05:18:32.577Z,6.40
2023-04-08T05:20:59.604Z,6.40
2023-04-08T05:23:26.634Z,6.30
2023-04-08T05:25:53.719Z,6.30
2023-04-08T05:28:20.791Z,6.30
2023-04-08T05:30:52.237Z,6.30
2023-04-08T05:33:19.741Z,6.20
2023-04-08T05:35:47.070Z,6.20
2023-04-08T05:38:14.142Z,6.10
2023-04-08T05:40:41.652Z,6.00
2023-04-08T05:43:08.644Z,6.10
2023-04-08T05:45:35.778Z,6.30
2023-04-08T05:48:02.902Z,6.30
2023-04-08T05:50:29.953Z,6.30
2023-04-08T05:52:57.150Z,6.30
2023-04-08T05:55:24.251Z,6.30
2023-04-08T05:57:51.278Z,6.40
2023-04-08T06:00:18.763Z,6.50
2023-04-08T06:02:53.157Z,6.50
2023-04-08T06:05:20.359Z,6.50
2023-04-08T06:07:47.387Z,6.50
2023-04-08T06:10:14.450Z,6.50
2023-04-08T06:12:41.506Z,6.60
2023-04-08T06:15:09.632Z,6.70
2023-04-08T06:17:37.479Z,6.70
2023-04-08T06:20:06.151Z,6.80
2023-04-08T06:22:33.339Z,6.80
2023-04-08T06:25:00.334Z,6.80
2023-04-08T06:27:27.341Z,6.70
2023-04-08T06:29:55.370Z,6.70
2023-04-08T06:32:22.674Z,6.60
2023-04-08T06:34:49.716Z,6.60
2023-04-08T06:37:16.742Z,6.60
2023-04-08T06:39:44.421Z,6.70
2023-04-08T06:42:11.482Z,6.70
2023-04-08T06:45:08.010Z,6.70
2023-04-08T06:47:35.085Z,6.80
2023-04-08T06:50:02.222Z,6.80
2023-04-08T06:52:29.263Z,6.80
2023-04-08T06:54:56.260Z,6.80
2023-04-08T06:57:23.342Z,6.70
2023-04-08T06:59:50.332Z,6.70
2023-04-08T07:02:17.622Z,6.60
2023-04-08T07:04:46.758Z,6.60
2023-04-08T07:07:14.167Z,6.70
2023-04-08T07:09:43.432Z,6.80
2023-04-08T07:12:10.616Z,6.90
2023-04-08T07:14:37.642Z,7.10
2023-04-08T07:17:04.756Z,7.20
2023-04-08T07:19:32.330Z,7.20
2023-04-08T07:21:59.434Z,7.30
2023-04-08T07:24:27.210Z,7.20
2023-04-08T07:26:56.332Z,7.10
2023-04-08T07:29:23.408Z,7.00
2023-04-08T07:31:50.416Z,7.00
2023-04-08T07:34:17.720Z,7.00
2023-04-08T07:36:44.845Z,7.00
2023-04-08T07:39:11.901Z,7.00
2023-04-08T07:41:38.876Z,7.10
2023-04-08T07:44:05.896Z,7.30
2023-04-08T07:46:36.180Z,7.30
2023-04-08T07:49:03.161Z,7.40
2023-04-08T07:51:30.165Z,7.50
2023-04-08T07:53:57.170Z,7.40
2023-04-08T07:56:24.162Z,7.30
2023-04-08T07:58:53.397Z,7.20
2023-04-08T08:01:22.554Z,7.10
2023-04-08T08:03:51.696Z,6.90
2023-04-08T08:06:19.281Z,6.70
2023-04-08T08:08:46.441Z,6.60
2023-04-08T08:11:13.719Z,6.50
2023-04-08T08:13:40.929Z,6.40
2023-04-08T08:16:11.371Z,6.30
2023-04-08T08:18:40.909Z,6.30
2023-04-08T08:21:08.889Z,6.30
2023-04-08T08:23:36.181Z,6.20
2023-04-08T08:26:06.394Z,6.10
2023-04-08T08:28:33.748Z,6.20
2023-04-08T08:31:01.293Z,6.20
2023-04-08T08:33:28.331Z,6.30
2023-04-08T08:35:56.160Z,6.50
2023-04-08T08:38:23.224Z,6.60
2023-04-08T08:40:57.510Z,6.70
2023-04-08T08:43:29.096Z,6.80
2023-04-08T08:45:56.063Z,6.80
2023-04-08T08:48:23.098Z,6.80
2023-04-08T08:50:50.154Z,6.90
2023-04-08T08:53:17.343Z,6.90
2023-04-08T08:56:13.464Z,6.80
2023-04-08T08:58:32.130Z,6.90
2023-04-08T09:00:59.095Z,6.80
2023-04-08T09:03:28.383Z,6.80
2023-04-08T09:05:56.963Z,6.80
2023-04-08T09:08:29.441Z,6.70
2023-04-08T09:11:23.889Z,6.80
2023-04-08T09:13:51.187Z,6.80
2023-04-08T09:16:20.030Z,6.80
2023-04-08T09:18:49.203Z,6.80
2023-04-08T09:21:18.196Z,6.70
2023-04-08T09:23:51.702Z,6.60
2023-04-08T09:26:24.766Z,6.40
2023-04-08T09:29:14.251Z,6.50
2023-04-08T09:31:47.400Z,6.50
2023-04-08T09:34:20.946Z,6.50
2023-04-08T09:36:49.266Z,6.60
2023-04-08T09:39:16.450Z,6.60
2023-04-08T09:41:44.191Z,6.50
2023-04-08T09:44:12.648Z,6.40
2023-04-08T09:46:52.807Z,6.40
2023-04-08T09:49:26.925Z,6.30
2023-04-08T09:52:03.696Z,6.30
2023-04-08T09:54:44.489Z,6.30
2023-04-08T09:57:17.196Z,6.40
2023-04-08T09:59:52.628Z,6.30
2023-04-08T10:02:28.977Z,6.30
2023-04-08T10:05:00.336Z,6.20
2023-04-08T10:07:27.456Z,6.20
2023-04-08T10:09:54.611Z,6.10
2023-04-08T10:12:21.888Z,6.10
2023-04-08T10:15:24.967Z,6.10
2023-04-08T10:17:56.850Z,6.10
2023-04-08T10:20:36.203Z,6.10
2023-04-08T10:23:11.572Z,6.00
2023-04-08T10:25:48.955Z,5.90
2023-04-08T10:28:18.096Z,5.90
2023-04-08T10:30:46.623Z,5.90
2023-04-08T10:33:36.064Z,5.90
2023-04-08T10:36:13.487Z,5.90
2023-04-08T10:38:42.785Z,6.00
2023-04-08T10:41:14.567Z,6.00
2023-04-08T10:43:42.156Z,6.00
2023-04-08T10:46:12.337Z,5.90
2023-04-08T10:48:39.353Z,5.80
2023-04-08T10:51:06.629Z,5.90
2023-04-08T10:53:38.080Z,5.90
2023-04-08T10:56:18.410Z,5.90
2023-04-08T10:58:54.210Z,6.00
2023-04-08T11:01:21.518Z,6.00
2023-04-08T11:03:49.645Z,6.00
2023-04-08T11:06:17.738Z,6.10
2023-04-08T11:08:44.982Z,6.10
2023-04-08T11:11:12.438Z,6.10
2023-04-08T11:13:52.801Z,6.20
2023-04-08T11:16:22.982Z,6.30
2023-04-08T11:18:50.883Z,6.50
2023-04-08T11:21:17.962Z,6.40
2023-04-08T11:23:44.969Z,6.40
2023-04-08T11:26:12.162Z,6.50
2023-04-08T11:28:40.425Z,6.50
2023-04-08T11:31:10.181Z,6.50
2023-04-08T11:33:37.478Z,6.60
2023-04-08T11:36:04.859Z,6.70
2023-04-08T11:38:32.085Z,6.60
2023-04-08T11:41:00.305Z,6.60
2023-04-08T11:43:28.769Z,6.50
2023-04-08T11:45:56.005Z,6.50
2023-04-08T11:48:23.927Z,6.40
2023-04-08T11:51:04.695Z,6.40
2023-04-08T11:53:31.750Z,6.40
2023-04-08T11:55:59.001Z,6.40
2023-04-08T11:58:26.345Z,6.50
2023-04-08T12:01:02.394Z,6.60
2023-04-08T12:03:29.501Z,6.60
2023-04-08T12:05:56.645Z,6.60
2023-04-08T12:08:23.707Z,6.70
2023-04-08T12:10:50.759Z,6.70
2023-04-08T12:13:17.826Z,6.70
2023-04-08T12:15:45.271Z,6.70
2023-04-08T12:18:12.267Z,6.70
2023-04-08T12:20:39.300Z,6.70
2023-04-08T12:23:08.188Z,6.70
2023-04-08T12:25:35.567Z,6.70
2023-04-08T12:28:02.575Z,6.90
2023-04-08T12:30:29.538Z,6.90
2023-04-08T12:32:58.671Z,7.00
2023-04-08T12:35:25.973Z,7.00
2023-04-08T12:37:52.984Z,6.90
2023-04-08T12:40:20.036Z,6.90
2023-04-08T12:42:47.022Z,6.90
2023-04-08T12:45:14.205Z,7.00
2023-04-08T12:47:41.302Z,7.00
2023-04-08T12:50:13.188Z,6.90
2023-04-08T12:52:40.717Z,6.90
2023-04-08T12:55:08.068Z,6.90
2023-04-08T12:57:35.858Z,6.90
2023-04-08T13:00:04.227Z,6.80
2023-04-08T13:02:31.467Z,6.90
2023-04-08T13:04:58.503Z,7.00
2023-04-08T13:07:25.583Z,7.10
2023-04-08T13:09:52.611Z,7.10
2023-04-08T13:12:19.581Z,7.10
2023-04-08T13:14:46.646Z,7.10
2023-04-08T13:17:13.655Z,7.00
2023-04-08T13:19:40.641Z,6.90
2023-04-08T13:22:07.620Z,6.80
2023-04-08T13:24:34.589Z,6.80
2023-04-08T13:27:02.670Z,6.70
2023-04-08T13:29:29.617Z,6.70
2023-04-08T13:31:56.753Z,6.60
2023-04-08T13:34:23.694Z,6.70
2023-04-08T13:36:50.711Z,6.70
2023-04-08T13:39:17.656Z,6.80
2023-04-08T13:41:44.724Z,6.80
2023-04-08T13:44:11.695Z,6.90
2023-04-08T13:46:39.696Z,7.00
2023-04-08T13:49:06.641Z,7.00
2023-04-08T13:51:33.824Z,7.00
2023-04-08T13:54:01.363Z,7.10
2023-04-08T13:56:28.431Z,7.20
2023-04-08T13:58:57.604Z,7.20
2023-04-08T14:01:24.807Z,7.20
2023-04-08T14:03:51.803Z,7.20
2023-04-08T14:06:18.771Z,7.20
2023-04-08T14:08:45.910Z,7.20
2023-04-08T14:11:12.975Z,7.20
2023-04-08T14:13:39.921Z,7.10
2023-04-08T14:16:06.964Z,7.10
2023-04-08T14:18:33.937Z,7.00
2023-04-08T14:21:01.176Z,6.90
2023-04-08T14:23:28.196Z,6.90
2023-04-08T14:25:55.140Z,6.80
2023-04-08T14:28:22.144Z,6.80
2023-04-08T14:30:49.196Z,6.80
2023-04-08T14:33:16.220Z,6.80
2023-04-08T14:35:43.249Z,6.80
2023-04-08T14:38:10.196Z,6.80
2023-04-08T14:40:38.284Z,6.90
2023-04-08T14:43:05.269Z,6.90
2023-04-08T14:45:33.196Z,7.00
2023-04-08T14:48:00.281Z,7.00
2023-04-08T14:50:27.574Z,7.00
2023-04-08T14:52:54.530Z,7.00
2023-04-08T14:55:22.751Z,7.10
2023-04-08T14:57:49.776Z,7.20
2023-04-08T15:00:18.737Z,7.30
2023-04-08T15:02:53.116Z,7.40
2023-04-08T15:05:24.673Z,7.50
2023-04-08T15:07:54.757Z,7.50
2023-04-08T15:10:27.294Z,7.60
2023-04-08T15:12:54.793Z,7.80
2023-04-08T15:15:22.226Z,8.00
2023-04-08T15:17:51.652Z,8.10
2023-04-08T15:20:20.493Z,8.30
2023-04-08T15:22:48.378Z,8.60
2023-04-08T15:25:16.112Z,8.80
2023-04-08T15:27:43.423Z,9.00
2023-04-08T15:30:12.454Z,9.10
2023-04-08T15:32:46.039Z,9.20
2023-04-08T15:35:14.460Z,9.20
2023-04-08T15:37:41.839Z,9.10
2023-04-08T15:40:09.435Z,9.00
2023-04-08T15:42:36.571Z,8.90
2023-04-08T15:45:07.133Z,8.90
2023-04-08T15:47:35.530Z,8.70
2023-04-08T15:50:02.682Z,8.70
2023-04-08T15:52:29.703Z,8.70
2023-04-08T15:54:57.855Z,8.60
2023-04-08T15:57:26.866Z,8.60
2023-04-08T15:59:53.958Z,8.60
2023-04-08T16:02:23.156Z,8.50
2023-04-08T16:04:56.966Z,8.30
2023-04-08T16:07:24.019Z,8.20
2023-04-08T16:09:51.129Z,8.10
2023-04-08T16:12:19.586Z,7.90
2023-04-08T16:14:47.267Z,7.80
2023-04-08T16:17:14.648Z,7.70
2023-04-08T16:19:43.537Z,7.60
2023-04-08T16:22:11.561Z,7.50
2023-04-08T16:24:38.649Z,7.40
2023-04-08T16:27:05.758Z,7.30
2023-04-08T16:29:39.902Z,7.20
2023-04-08T16:32:07.287Z,7.10
2023-04-08T16:34:38.039Z,7.10
2023-04-08T16:37:10.349Z,7.10
2023-04-08T16:39:37.682Z,7.10
2023-04-08T16:42:08.824Z,7.10
2023-04-08T16:44:35.833Z,7.10
2023-04-08T16:47:03.991Z,7.10
2023-04-08T16:49:31.128Z,7.10
2023-04-08T16:51:58.508Z,7.10
2023-04-08T16:54:25.756Z,7.00
2023-04-08T16:56:52.791Z,7.00
2023-04-08T16:59:19.811Z,7.00
2023-04-08T17:01:46.895Z,6.90
2023-04-08T17:04:13.924Z,6.90
2023-04-08T17:06:42.271Z,7.00
2023-04-08T17:09:09.298Z,7.10
2023-04-08T17:11:36.672Z,7.10
2023-04-08T17:14:04.213Z,7.20
2023-04-08T17:16:31.290Z,7.30
2023-04-08T17:18:58.494Z,7.40
2023-04-08T17:21:28.178Z,7.50
2023-04-08T17:23:55.550Z,7.60
2023-04-08T17:26:23.566Z,7.70
2023-04-08T17:28:50.607Z,7.80
2023-04-08T17:31:17.629Z,7.90
2023-04-08T17:33:44.641Z,8.00
2023-04-08T17:36:12.751Z,8.20
2023-04-08T17:38:40.089Z,8.20
2023-04-08T17:41:13.406Z,8.30
2023-04-08T17:43:42.581Z,8.30
2023-04-08T17:46:09.616Z,8.30
2023-04-08T17:48:36.605Z,8.40
2023-04-08T17:51:05.534Z,8.40
2023-04-08T17:53:34.085Z,8.40
2023-04-08T17:56:01.360Z,8.40
2023-04-08T17:58:28.400Z,8.40
2023-04-08T18:00:55.409Z,8.40
2023-04-08T18:03:22.614Z,8.40
2023-04-08T18:05:49.844Z,8.40
2023-04-08T18:08:16.907Z,8.30
2023-04-08T18:10:44.661Z,8.20
2023-04-08T18:13:13.443Z,8.20
2023-04-08T18:15:40.472Z,8.20
2023-04-08T18:18:07.575Z,8.10
2023-04-08T18:20:37.770Z,8.00
2023-04-08T18:23:05.021Z,8.00
2023-04-08T18:25:32.612Z,8.00
2023-04-08T18:27:59.766Z,8.00
2023-04-08T18:30:26.870Z,8.00
2023-04-08T18:32:54.329Z,7.90
2023-04-08T18:35:22.378Z,8.00
2023-04-08T18:37:49.394Z,7.90
2023-04-08T18:40:16.898Z,7.90
2023-04-08T18:42:44.014Z,7.90
2023-04-08T18:45:11.143Z,7.80
2023-04-08T18:47:38.167Z,7.80
2023-04-08T18:50:06.547Z,7.80
2023-04-08T18:52:33.613Z,7.80
2023-04-08T18:55:00.868Z,7.70
2023-04-08T18:57:28.062Z,7.60
2023-04-08T18:59:55.043Z,7.60
2023-04-08T19:02:22.977Z,7.60
2023-04-08T19:04:50.212Z,7.60
2023-04-08T19:07:17.960Z,7.60
2023-04-08T19:09:45.004Z,7.60
2023-04-08T19:12:12.076Z,7.60
2023-04-08T19:14:39.704Z,7.60
2023-04-08T19:17:06.828Z,7.60
2023-04-08T19:19:34.625Z,7.60
2023-04-08T19:22:05.907Z,7.60
2023-04-08T19:24:34.036Z,7.60
2023-04-08T19:27:01.185Z,7.60
2023-04-08T19:29:30.182Z,7.60
2023-04-08T19:31:59.462Z,7.60
2023-04-08T19:34:30.129Z,7.60
2023-04-08T19:36:57.282Z,7.60
2023-04-08T19:39:26.388Z,7.60
2023-04-08T19:41:54.635Z,7.50
2023-04-08T19:44:21.649Z,7.50
2023-04-08T19:46:48.755Z,7.50
2023-04-08T19:49:18.682Z,7.50
2023-04-08T19:51:46.742Z,7.50
2023-04-08T19:54:14.923Z,7.50
2023-04-08T19:56:42.814Z,7.40
2023-04-08T19:59:12.241Z,7.40
2023-04-08T20:01:40.545Z,7.40
2023-04-08T20:04:07.648Z,7.40
2023-04-08T20:06:34.913Z,7.30
2023-04-08T20:09:05.776Z,7.20
2023-04-08T20:11:34.574Z,7.10
2023-04-08T20:14:03.037Z,7.10
2023-04-08T20:16:30.104Z,7.00
2023-04-08T20:18:57.322Z,7.00
2023-04-08T20:21:24.424Z,6.90
2023-04-08T20:23:52.198Z,6.90
2023-04-08T20:26:19.703Z,6.80
2023-04-08T20:28:47.177Z,6.80
2023-04-08T20:31:14.716Z,6.70
2023-04-08T20:33:44.412Z,6.70
2023-04-08T20:36:15.806Z,6.60
2023-04-08T20:38:43.044Z,6.60
2023-04-08T20:41:10.127Z,6.60
2023-04-08T20:43:37.476Z,6.50
2023-04-08T20:46:05.022Z,6.50
2023-04-08T20:48:33.418Z,6.40
2023-04-08T20:51:00.542Z,6.40
2023-04-08T20:53:27.886Z,6.40
2023-04-08T20:55:55.284Z,6.40
2023-04-08T20:58:22.642Z,6.40
2023-04-08T21:00:49.923Z,6.40
2023-04-08T21:03:17.433Z,6.40
2023-04-08T21:05:45.215Z,6.40
2023-04-08T21:08:12.784Z,6.30
2023-04-08T21:10:40.188Z,6.30
2023-04-08T21:13:07.654Z,6.30
2023-04-08T21:15:35.158Z,6.30
2023-04-08T21:18:02.978Z,6.40
2023-04-08T21:20:30.298Z,6.40
2023-04-08T21:22:59.070Z,6.40
2023-04-08T21:25:26.646Z,6.50
2023-04-08T21:27:54.133Z,6.50
2023-04-08T21:30:21.452Z,6.50
2023-04-08T21:32:48.517Z,6.60
2023-04-08T21:35:15.808Z,6.60
2023-04-08T21:37:43.116Z,6.60
2023-04-08T21:40:10.394Z,6.50
2023-04-08T21:42:37.344Z,6.50
2023-04-08T21:45:04.681Z,6.50
2023-04-08T21:48:01.340Z,6.60
2023-04-08T21:50:28.376Z,6.60
2023-04-08T21:52:55.604Z,6.70
2023-04-08T21:55:22.717Z,6.80
2023-04-08T21:57:49.666Z,6.80
2023-04-08T22:00:16.773Z,6.80
2023-04-08T22:02:43.948Z,6.90
2023-04-08T22:05:11.793Z,6.90
2023-04-08T22:07:38.911Z,6.90
2023-04-08T22:10:06.647Z,6.90
2023-04-08T22:12:34.509Z,7.00
2023-04-08T22:15:01.523Z,7.00
2023-04-08T22:17:28.644Z,7.00
2023-04-08T22:19:55.927Z,7.00
2023-04-08T22:22:22.932Z,7.00
2023-04-08T22:24:50.033Z,6.90
2023-04-08T22:27:17.180Z,6.90
2023-04-08T22:29:44.152Z,6.80
2023-04-08T22:32:11.291Z,6.80
2023-04-08T22:34:39.633Z,6.80
2023-04-08T22:37:06.920Z,6.80
2023-04-08T22:39:34.308Z,6.80
2023-04-08T22:42:01.741Z,6.80
2023-04-08T22:44:29.013Z,6.70
2023-04-08T22:46:56.665Z,6.70
2023-04-08T22:49:24.084Z,6.70
2023-04-08T22:51:57.657Z,6.70
2023-04-08T22:54:25.099Z,6.60
2023-04-08T22:56:52.235Z,6.60
2023-04-08T22:59:19.206Z,6.50
2023-04-08T23:01:46.494Z,6.50
2023-04-08T23:04:13.540Z,6.40
2023-04-08T23:06:40.761Z,6.40
2023-04-08T23:09:07.747Z,6.40
2023-04-08T23:11:34.793Z,6.40
2023-04-08T23:14:01.921Z,6.30
2023-04-08T23:16:29.017Z,6.30
2023-04-08T23:18:56.040Z,6.30
2023-04-08T23:21:25.119Z,6.30
2023-04-08T23:23:52.073Z,6.30
2023-04-08T23:26:19.862Z,6.30
2023-04-08T23:28:46.837Z,6.30
2023-04-08T23:31:14.160Z,6.40
2023-04-08T23:33:41.171Z,6.50
2023-04-08T23:36:09.262Z,6.60
2023-04-08T23:38:39.075Z,6.70
2023-04-08T23:41:07.010Z,6.70
2023-04-08T23:43:34.597Z,6.80
2023-04-08T23:46:01.865Z,6.80
2023-04-08T23:48:29.032Z,6.80
2023-04-08T23:50:56.375Z,6.80
2023-04-08T23:53:23.344Z,6.80
2023-04-08T23:55:50.414Z,6.80
2023-04-08T23:58:17.411Z,6.80
